CYXR

Details ICAO CYXR (YXR)
Name TIMISKAMING RGNL
Region Canada
Timezone America/Toronto (UTC-4.0)
Plans Departing 2
Arriving 2
Stats Elevation 798 ft / 243 m (AMSL)
Location 47.694986° -79.852565°
Runways 2
Magnetic Variation 11.308° W
Sunrise 2018-05-23 09:34:09 UTC / 2018-05-23 05:34:09 Local
Sunset 2018-05-24 01:01:04 UTC / 2018-05-23 21:01:04 Local
Advertisement - Login to hide

Runways

ID Width Length Bearing (true) Bearing (mag) Surface Threshold Offset Overrun Length
08 150 ft / 46 m 5,987 ft / 1,825 m 63.26° 74.57° Asphalt 0 ft / 0 m 0 ft / 0 m
16 150 ft / 46 m 2,946 ft / 898 m 149.37° 160.68° Gravel 0 ft / 0 m 0 ft / 0 m
26 150 ft / 46 m 5,987 ft / 1,825 m 243.27° 254.58° Asphalt 0 ft / 0 m 0 ft / 0 m
34 150 ft / 46 m 2,946 ft / 898 m 329.37° 340.68° Gravel 300 ft / 91 m 0 ft / 0 m

Map

Weather


0- 5 10 15 20 25 30 35+ Temperature / ° C

Clouds and Precipitation
Forecast for 2018-05-23 18:00 UTC. Updated 2 hours ago

Ground ~20,000 ft ~40,000 ft Winds

METAR

CYXR 231900Z AUTO 31009KT 280V020 9SM CLR 17/M06 A3010 RMK SLP200 DENSITY ALT 1000FT

TAF

TAF CYXR 231741Z 2318/2324 33008KT P6SM FEW100 RMK FCST BASED ON AUTO OBS. NXT FCST WILL BE ISSUED AT 241145Z

Frequencies

Tower 122.00 MHz MF
Warning: Do not use this data for real-world aviation or navigation. No guarantee of current accuracy is given.